Flight Track Log - Related Links

Times and Time Zones

All times are in EDT time to prevent confusion due to time zone crossing. See the EJA941 flight status page for this flight to view local times or setup timezone preferences in your user account.

Time Position Orientation Groundspeed Altitude Reporting Facility
EDT Latitude Longitude Course Direction KTS MPH feet Rate Location/Type
Fri 07:45:14 PM 39.8333 -85.9167 270° West 167 192 1,400  Level Indianapolis TRACON
Fri 07:45:50 PM 39.8333 -85.9333 270° West 174 200 2,800 2,125 Climbing Indianapolis TRACON
Fri 07:46:50 PM 39.7833 -85.9333 180° South 192 221 4,800 2,118 Climbing Indianapolis TRACON
Fri 07:47:32 PM 39.7333 -85.9500 194° South 195 224 6,400 2,268 Climbing Indianapolis TRACON
Fri 07:48:12 PM 39.7164 -85.9756 229° Southwest 207 238 7,900 2,079 Climbing Indianapolis Center
Fri 07:49:13 PM 39.6689 -86.0364 225° Southwest 232 267 9,900 2,146 Climbing Indianapolis Center
Fri 07:50:15 PM 39.6483 -86.1167 252° West 236 272 12,300 1,500 Climbing Indianapolis Center
Fri 07:51:17 PM 39.6364 -86.2044 260° West 243 280 13,000 339 Climbing Indianapolis Center
Fri 07:52:19 PM 39.6194 -86.3319 260° West 293 337 13,000 581 Level Indianapolis Center
Fri 07:53:21 PM 39.6031 -86.4489 260° West 321 369 14,200 1,268 Climbing Indianapolis Center
Fri 07:54:22 PM 39.5933 -86.5672 264° West 327 376 15,600 1,463 Climbing Indianapolis Center
Fri 07:55:24 PM 39.5839 -86.6989 265° West 354 407 17,200 1,500 Climbing Indianapolis Center
Fri 07:56:26 PM 39.5739 -86.8344 265° West 373 429 18,700 1,645 Climbing Indianapolis Center
Fri 07:57:28 PM 39.5644 -86.9717 265° West 382 440 20,600 2,226 Climbing Indianapolis Center
Fri 07:58:30 PM 39.5531 -87.1081 264° West 381 438 23,300 2,585 Climbing Indianapolis Center
Fri 07:59:31 PM 39.5475 -87.2403 267° West 371 427 25,900 1,317 Climbing Indianapolis Center
Fri 08:00:33 PM 39.5919 -87.4033 290° West 402 463 26,000 48 Climbing Indianapolis Center
Fri 08:01:35 PM 39.6022 -87.5528 275° West 420 483 26,000  Level Indianapolis Center
Fri 08:02:37 PM 39.5711 -87.7028 255° West 432 497 26,000  Level Indianapolis Center
Fri 08:03:39 PM 39.5242 -87.8469 247° West 434 499 26,000  Level Indianapolis Center
Fri 08:04:40 PM 39.4772 -87.9928 247° West 440 506 26,000  Level Indianapolis Center
Fri 08:05:40 PM 39.4267 -88.1506 248° West 440 506 26,000  Level Kansas Center
Fri 08:06:42 PM 39.3794 -88.2958 247° West 440 506 26,000 48 Level Kansas Center
Fri 08:07:44 PM 39.3356 -88.4264 247° West 426 490 26,100 -581 Climbing Kansas Center
Fri 08:08:46 PM 39.3264 -88.5453 264° West 386 444 24,800 -1,016 Descending Kansas Center
Fri 08:09:48 PM 39.3411 -88.6733 278° West 369 425 24,000 -387 Descending Kansas Center
Fri 08:10:50 PM 39.3086 -88.8142 253° West 366 421 24,000 -532 Level Kansas Center
Fri 08:11:52 PM 39.2467 -88.9150 232° Southwest 362 417 22,900 -968 Descending Kansas Center
Fri 08:12:54 PM 39.1825 -89.0183 231° Southwest 365 420 22,000 -435 Descending Kansas Center
Fri 08:13:56 PM 39.1100 -89.1350 231° Southwest 384 442 22,000 -97 Level Kansas Center
Fri 08:14:58 PM 39.0681 -89.2725 249° West 383 441 21,800 -1,065 Descending Kansas Center
Fri 08:16:00 PM 39.0381 -89.4053 254° West 387 445 19,800 -1,920 Descending Kansas Center
Fri 08:17:03 PM 39.0103 -89.5339 255° West 377 434 17,800 -1,968 Descending Kansas Center
Fri 08:18:05 PM 38.9739 -89.6672 251° West 371 427 15,700 -1,839 Descending Kansas Center
Fri 08:19:07 PM 38.9364 -89.7858 248° West 362 417 14,000 -1,548 Descending Kansas Center
Fri 08:20:09 PM 38.9011 -89.8961 248° West 353 406 12,500 -1,403 Descending Kansas Center
Fri 08:21:11 PM 38.8664 -90.0047 248° West 338 389 11,100 -1,161 Descending Kansas Center
Fri 08:22:13 PM 38.8358 -90.1003 248° West 301 346 10,100 -1,016 Descending Kansas Center
Fri 08:23:15 PM 38.8069 -90.2150 252° West 285 328 9,000 -1,161 Descending Kansas Center
Fri 08:24:17 PM 38.8306 -90.2933 291° West 248 285 7,700 -1,437 Descending Kansas Center
Fri 08:26:02 PM 38.8833 -90.4167 299° West 227 261 5,000 -982 Descending Gateway TRACON
Fri 08:27:02 PM 38.9167 -90.5000 297° West 225 259 5,000  Level Gateway TRACON
Fri 08:28:08 PM 38.8667 -90.5333 207° Southwest 187 215 5,000 -571 Level Gateway TRACON
Fri 08:29:08 PM 38.8333 -90.4833 131° Southeast 173 199 3,800 -1,421 Descending Gateway TRACON
Fri 08:30:02 PM 38.8000 -90.4667 159° South 124 143 2,300 -1,222 Descending Gateway TRACON
Fri 08:30:56 PM 38.7833 -90.4333 123° Southeast 117 135 1,600 -674 Descending Gateway TRACON
Fri 08:31:31 PM 38.7769 -90.4172 117° Southeast 132 152 1,300 -495 Descending Kansas Center
Fri 08:32:33 PM 38.7589 -90.3803 122° Southeast 126 145 800 -484 Descending Kansas Center

Login

Don't have an account? Register now (free) for customized features, flight alerts, and more!